createdAt,value
2023-02-12T00:01:02.932Z,10.80
2023-02-12T00:03:32.383Z,11.25
2023-02-12T00:06:03.140Z,10.38
2023-02-12T00:08:31.208Z,11.77
2023-02-12T00:10:59.297Z,12.07
2023-02-12T00:13:27.347Z,11.02
2023-02-12T00:15:55.735Z,11.63
2023-02-12T00:18:24.087Z,11.18
2023-02-12T00:20:53.441Z,10.80
2023-02-12T00:23:21.445Z,11.18
2023-02-12T00:25:49.418Z,10.05
2023-02-12T00:28:17.606Z,11.48
2023-02-12T00:30:45.810Z,10.52
2023-02-12T00:33:14.019Z,10.38
2023-02-12T00:35:42.119Z,9.40
2023-02-12T00:38:11.568Z,9.98
2023-02-12T00:40:39.607Z,10.18
2023-02-12T00:43:07.653Z,11.20
2023-02-12T00:45:38.002Z,11.60
2023-02-12T00:48:06.539Z,9.50
2023-02-12T00:50:34.560Z,10.65
2023-02-12T00:53:02.559Z,10.10
2023-02-12T00:55:33.211Z,11.50
2023-02-12T00:58:01.608Z,11.70
2023-02-12T01:00:29.740Z,10.85
2023-02-12T01:02:57.805Z,10.70
2023-02-12T01:05:25.994Z,10.73
2023-02-12T01:07:55.457Z,10.80
2023-02-12T01:10:23.821Z,11.10
2023-02-12T01:12:53.240Z,8.77
2023-02-12T01:15:21.335Z,11.85
2023-02-12T01:17:51.964Z,11.00
2023-02-12T01:20:22.760Z,10.05
2023-02-12T01:22:51.200Z,11.57
2023-02-12T01:25:20.774Z,9.98
2023-02-12T01:27:48.961Z,12.88
2023-02-12T01:30:22.152Z,10.98
2023-02-12T01:32:50.198Z,10.95
2023-02-12T01:35:18.447Z,10.20
2023-02-12T01:37:46.500Z,11.13
2023-02-12T01:40:18.583Z,11.52
2023-02-12T01:42:46.696Z,11.25
2023-02-12T01:45:48.115Z,12.77
2023-02-12T01:48:18.980Z,10.95
2023-02-12T01:50:49.621Z,12.85
2023-02-12T01:53:20.384Z,13.13
2023-02-12T01:55:50.637Z,12.23
2023-02-12T01:58:19.290Z,10.50
2023-02-12T02:00:49.024Z,12.23
2023-02-12T02:03:17.760Z,12.88
2023-02-12T02:05:52.819Z,11.38
2023-02-12T02:08:20.975Z,11.65
2023-02-12T02:10:49.001Z,11.07
2023-02-12T02:13:34.568Z,12.13
2023-02-12T02:16:11.847Z,11.52
2023-02-12T02:18:44.745Z,10.77
2023-02-12T02:21:56.503Z,10.32
2023-02-12T02:24:54.444Z,10.10
2023-02-12T02:27:33.350Z,10.80
2023-02-12T02:30:34.764Z,10.65
2023-02-12T02:33:21.992Z,13.00
2023-02-12T02:35:57.243Z,11.30
2023-02-12T02:38:32.904Z,11.40
2023-02-12T02:41:06.933Z,11.93
2023-02-12T02:43:41.738Z,12.23
2023-02-12T02:46:15.792Z,10.80
2023-02-12T02:48:47.496Z,11.77
2023-02-12T02:51:20.276Z,11.20
2023-02-12T02:53:54.041Z,11.65
2023-02-12T02:56:25.258Z,11.45
2023-02-12T02:58:57.909Z,12.27
2023-02-12T03:01:31.881Z,11.82
2023-02-12T03:04:03.676Z,12.25
2023-02-12T03:06:40.131Z,9.75
2023-02-12T03:09:17.670Z,11.57
2023-02-12T03:11:46.004Z,12.00
2023-02-12T03:14:19.037Z,11.38
2023-02-12T03:16:54.021Z,11.43
2023-02-12T03:19:25.122Z,12.32
2023-02-12T03:21:59.276Z,11.38
2023-02-12T03:24:33.303Z,10.80
2023-02-12T03:27:06.313Z,12.48
2023-02-12T03:29:34.463Z,11.40
2023-02-12T03:32:17.628Z,12.35
2023-02-12T03:34:52.346Z,12.25
2023-02-12T03:37:26.017Z,10.52
2023-02-12T03:39:57.829Z,9.88
2023-02-12T03:42:36.518Z,11.43
2023-02-12T03:45:11.149Z,10.88
2023-02-12T03:47:47.315Z,11.40
2023-02-12T03:50:18.154Z,9.52
2023-02-12T03:52:47.505Z,10.88
2023-02-12T03:55:17.507Z,10.00
2023-02-12T03:57:49.641Z,9.82
2023-02-12T04:00:20.365Z,12.55
2023-02-12T04:02:50.726Z,11.07
2023-02-12T04:05:20.437Z,10.00
2023-02-12T04:07:48.847Z,12.75
2023-02-12T04:10:18.177Z,11.05
2023-02-12T04:12:53.588Z,11.57
2023-02-12T04:15:38.983Z,11.30
2023-02-12T04:18:16.092Z,11.30
2023-02-12T04:20:59.716Z,12.77
2023-02-12T04:23:51.414Z,12.18
2023-02-12T04:26:28.022Z,10.40
2023-02-12T04:29:09.261Z,11.27
2023-02-12T04:31:41.959Z,12.60
2023-02-12T04:34:16.714Z,10.80
2023-02-12T04:36:50.187Z,11.57
2023-02-12T04:39:22.377Z,11.13
2023-02-12T04:41:50.850Z,11.23
2023-02-12T04:44:22.919Z,11.07
2023-02-12T04:46:50.966Z,11.32
2023-02-12T04:49:22.363Z,11.35
2023-02-12T04:51:50.972Z,11.93
2023-02-12T04:54:20.492Z,10.77
2023-02-12T04:56:49.370Z,11.00
2023-02-12T04:59:18.259Z,11.25
2023-02-12T05:01:46.580Z,12.23
2023-02-12T05:04:17.031Z,11.55
2023-02-12T05:06:47.670Z,12.65
2023-02-12T05:09:18.191Z,10.80
2023-02-12T05:11:46.443Z,10.52
2023-02-12T05:14:14.794Z,12.73
2023-02-12T05:16:42.808Z,11.52
2023-02-12T05:19:10.934Z,11.57
2023-02-12T05:21:39.721Z,10.88
2023-02-12T05:24:09.826Z,10.20
2023-02-12T05:26:38.106Z,12.43
2023-02-12T05:29:06.142Z,11.05
2023-02-12T05:31:34.393Z,10.25
2023-02-12T05:34:03.032Z,10.98
2023-02-12T05:36:31.235Z,11.00
2023-02-12T05:39:00.802Z,10.07
2023-02-12T05:41:34.774Z,9.20
2023-02-12T05:44:03.204Z,10.82
2023-02-12T05:46:31.549Z,11.73
2023-02-12T05:48:59.865Z,10.98
2023-02-12T05:51:29.298Z,10.43
2023-02-12T05:54:00.304Z,11.55
2023-02-12T05:56:31.955Z,11.20
2023-02-12T05:59:02.419Z,9.90
2023-02-12T06:01:32.750Z,10.02
2023-02-12T06:04:01.180Z,10.63
2023-02-12T06:06:29.652Z,10.23
2023-02-12T06:08:58.282Z,10.07
2023-02-12T06:11:26.938Z,10.55
2023-02-12T06:13:56.296Z,10.45
2023-02-12T06:16:26.324Z,10.23
2023-02-12T06:18:55.686Z,10.98
2023-02-12T06:21:25.104Z,11.52
2023-02-12T06:23:53.663Z,9.23
2023-02-12T06:26:22.752Z,10.50
2023-02-12T06:28:51.652Z,9.50
2023-02-12T06:31:24.042Z,9.70
2023-02-12T06:33:53.159Z,11.10
2023-02-12T06:36:21.276Z,10.77
2023-02-12T06:38:49.759Z,10.07
2023-02-12T06:41:17.902Z,11.25
2023-02-12T06:43:46.141Z,10.57
2023-02-12T06:46:16.371Z,9.85
2023-02-12T06:48:45.825Z,8.73
2023-02-12T06:51:16.075Z,9.25
2023-02-12T06:53:44.841Z,10.32
2023-02-12T06:56:14.026Z,9.50
2023-02-12T06:58:43.648Z,9.88
2023-02-12T07:01:13.934Z,9.65
2023-02-12T07:03:42.712Z,10.65
2023-02-12T07:06:12.371Z,10.15
2023-02-12T07:08:40.660Z,9.32
2023-02-12T07:11:08.809Z,8.50
2023-02-12T07:13:37.625Z,10.18
2023-02-12T07:16:07.495Z,11.15
2023-02-12T07:18:36.331Z,10.75
2023-02-12T07:21:05.656Z,10.55
2023-02-12T07:23:36.021Z,9.88
2023-02-12T07:26:06.340Z,8.70
2023-02-12T07:28:34.892Z,9.02
2023-02-12T07:31:08.700Z,11.00
2023-02-12T07:33:37.807Z,9.77
2023-02-12T07:36:07.678Z,8.15
2023-02-12T07:38:39.765Z,10.30
2023-02-12T07:41:10.889Z,9.57
2023-02-12T07:43:39.300Z,9.90
2023-02-12T07:46:09.574Z,9.98
2023-02-12T07:48:37.651Z,10.43
2023-02-12T07:51:07.831Z,9.57
2023-02-12T07:53:37.249Z,9.30
2023-02-12T07:56:13.685Z,11.00
2023-02-12T07:58:44.980Z,9.77
2023-02-12T08:01:15.744Z,9.82
2023-02-12T08:03:44.065Z,9.77
2023-02-12T08:06:15.039Z,9.40
2023-02-12T08:08:44.615Z,9.48
2023-02-12T08:11:14.633Z,8.70
2023-02-12T08:13:43.086Z,10.57
2023-02-12T08:16:14.194Z,9.15
2023-02-12T08:18:43.001Z,9.38
2023-02-12T08:21:12.811Z,10.18
2023-02-12T08:23:41.851Z,10.07
2023-02-12T08:26:13.456Z,10.43
2023-02-12T08:28:44.750Z,9.85
2023-02-12T08:31:15.769Z,9.63
2023-02-12T08:33:45.370Z,10.23
2023-02-12T08:36:15.665Z,10.27
2023-02-12T08:38:45.235Z,9.93
2023-02-12T08:41:16.266Z,10.50
2023-02-12T08:43:45.480Z,9.15
2023-02-12T08:46:15.598Z,9.40
2023-02-12T08:48:44.856Z,10.93
2023-02-12T08:51:15.662Z,9.63
2023-02-12T08:53:46.238Z,9.70
2023-02-12T08:56:18.148Z,9.73
2023-02-12T08:58:46.974Z,10.02
2023-02-12T09:01:17.456Z,9.95
2023-02-12T09:03:46.731Z,9.98
2023-02-12T09:06:16.333Z,10.18
2023-02-12T09:08:44.921Z,10.18
2023-02-12T09:11:16.950Z,8.50
2023-02-12T09:13:45.893Z,8.85
2023-02-12T09:16:15.211Z,10.20
2023-02-12T09:18:43.581Z,8.93
2023-02-12T09:21:15.962Z,9.73
2023-02-12T09:23:44.710Z,8.10
2023-02-12T09:26:16.260Z,8.75
2023-02-12T09:28:44.951Z,9.15
2023-02-12T09:31:14.949Z,9.60
2023-02-12T09:33:43.446Z,9.18
2023-02-12T09:36:14.316Z,8.93
2023-02-12T09:38:43.053Z,9.25
2023-02-12T09:41:58.852Z,10.27
2023-02-12T09:44:33.748Z,8.25
2023-02-12T09:47:04.811Z,7.20
2023-02-12T09:49:48.384Z,7.30
2023-02-12T09:52:18.999Z,9.32
2023-02-12T09:54:47.588Z,7.78
2023-02-12T09:57:20.496Z,7.45
2023-02-12T09:59:55.129Z,8.77
2023-02-12T10:02:24.951Z,7.47
2023-02-12T10:05:01.285Z,8.27
2023-02-12T10:07:41.649Z,8.13
2023-02-12T10:10:29.239Z,9.18
2023-02-12T10:13:01.125Z,7.93
2023-02-12T10:15:36.913Z,9.18
2023-02-12T10:18:25.703Z,8.45
2023-02-12T10:20:59.541Z,7.45
2023-02-12T10:24:03.403Z,8.32
2023-02-12T10:26:34.583Z,8.30
2023-02-12T10:29:13.972Z,9.25
2023-02-12T10:31:46.747Z,8.80
2023-02-12T10:34:19.925Z,8.18
2023-02-12T10:36:49.612Z,8.70
2023-02-12T10:39:23.402Z,9.75
2023-02-12T10:41:57.410Z,8.80
2023-02-12T10:44:25.654Z,9.20
2023-02-12T10:46:55.096Z,9.98
2023-02-12T10:49:23.366Z,9.02
2023-02-12T10:52:10.388Z,9.23
2023-02-12T10:54:43.546Z,8.13
2023-02-12T10:57:15.602Z,8.98
2023-02-12T10:59:45.241Z,7.75
2023-02-12T11:02:36.086Z,7.47
2023-02-12T11:05:24.559Z,8.00
2023-02-12T11:07:53.487Z,7.60
2023-02-12T11:10:22.382Z,7.43
2023-02-12T11:12:50.530Z,8.02
2023-02-12T11:15:20.805Z,5.78
2023-02-12T11:17:57.820Z,6.85
2023-02-12T11:20:29.279Z,6.13
2023-02-12T11:23:00.138Z,7.40
2023-02-12T11:25:30.104Z,6.45
2023-02-12T11:28:04.605Z,6.15
2023-02-12T11:30:32.970Z,6.97
2023-02-12T11:33:22.839Z,7.30
2023-02-12T11:35:53.596Z,7.15
2023-02-12T11:38:28.883Z,8.20
2023-02-12T11:41:01.029Z,5.88
2023-02-12T11:43:31.409Z,6.05
2023-02-12T11:46:01.335Z,5.82
2023-02-12T11:48:33.709Z,6.18
2023-02-12T11:51:04.589Z,7.85
2023-02-12T11:53:35.927Z,5.97
2023-02-12T11:56:06.969Z,5.45
2023-02-12T11:58:35.383Z,5.93
2023-02-12T12:01:12.666Z,5.55
2023-02-12T12:03:50.668Z,6.13
2023-02-12T12:06:33.493Z,5.03
2023-02-12T12:09:15.692Z,5.43
2023-02-12T12:11:59.118Z,6.22
2023-02-12T12:14:31.057Z,6.15
2023-02-12T12:17:21.535Z,5.63
2023-02-12T12:19:57.865Z,6.53
2023-02-12T12:22:40.350Z,5.38
2023-02-12T12:25:16.861Z,5.15
2023-02-12T12:28:08.239Z,6.70
2023-02-12T12:30:57.927Z,5.72
2023-02-12T12:33:38.366Z,4.75
2023-02-12T12:36:49.973Z,5.28
2023-02-12T12:39:29.434Z,4.97
2023-02-12T12:42:34.338Z,5.13
2023-02-12T12:45:18.343Z,4.28
2023-02-12T12:47:56.409Z,6.22
2023-02-12T12:50:46.430Z,4.68
2023-02-12T12:53:35.825Z,5.00
2023-02-12T12:56:36.262Z,4.72
2023-02-12T12:59:35.706Z,5.13
2023-02-12T13:02:41.991Z,4.20
2023-02-12T13:05:36.499Z,4.18
2023-02-12T13:08:14.221Z,3.67
2023-02-12T13:10:48.214Z,4.28
2023-02-12T13:13:26.365Z,3.53
2023-02-12T13:16:01.414Z,3.92
2023-02-12T13:18:46.015Z,3.15
2023-02-12T13:21:20.446Z,3.30
2023-02-12T13:23:55.000Z,2.67
2023-02-12T13:26:31.207Z,3.95
2023-02-12T13:29:05.718Z,4.03
2023-02-12T13:31:40.465Z,4.65
2023-02-12T13:34:14.561Z,4.03
2023-02-12T13:36:44.079Z,4.07
2023-02-12T13:39:20.217Z,3.65
2023-02-12T13:42:01.774Z,3.33
2023-02-12T13:44:36.733Z,3.13
2023-02-12T13:47:13.670Z,3.65
2023-02-12T13:49:51.056Z,3.15
2023-02-12T13:52:30.339Z,3.28
2023-02-12T13:55:12.763Z,3.30
2023-02-12T13:57:40.904Z,3.63
2023-02-12T14:00:51.502Z,3.67
2023-02-12T14:03:24.827Z,4.13
2023-02-12T14:06:15.772Z,3.97
2023-02-12T14:08:45.487Z,2.92
2023-02-12T14:11:16.348Z,4.30
2023-02-12T14:13:53.265Z,3.42
2023-02-12T14:16:39.864Z,4.10
2023-02-12T14:19:55.502Z,3.65
2023-02-12T14:22:59.254Z,3.92
2023-02-12T14:25:34.678Z,3.85
2023-02-12T14:28:12.898Z,3.22
2023-02-12T14:30:42.017Z,3.33
2023-02-12T14:33:23.979Z,3.92
2023-02-12T14:36:17.824Z,3.80
2023-02-12T14:39:02.571Z,3.20
2023-02-12T14:41:41.851Z,2.95
2023-02-12T14:44:44.468Z,3.30
2023-02-12T14:47:50.885Z,3.25
2023-02-12T14:50:26.002Z,2.70
2023-02-12T14:52:59.805Z,3.20
2023-02-12T14:55:31.536Z,3.15
2023-02-12T14:58:02.452Z,3.25
2023-02-12T15:00:36.130Z,3.22
2023-02-12T15:03:19.895Z,3.08
2023-02-12T15:06:04.528Z,2.42
2023-02-12T15:08:38.060Z,2.50
2023-02-12T15:11:18.344Z,2.95
2023-02-12T15:13:51.070Z,2.95
2023-02-12T15:16:28.420Z,3.28
2023-02-12T15:19:01.767Z,2.60
2023-02-12T15:21:33.647Z,3.28
2023-02-12T15:24:05.799Z,3.00
2023-02-12T15:26:38.301Z,2.70
2023-02-12T15:29:09.121Z,2.92
2023-02-12T15:31:37.703Z,3.40
2023-02-12T15:34:06.406Z,2.83
2023-02-12T15:36:38.137Z,2.83
2023-02-12T15:39:09.474Z,2.42
2023-02-12T15:41:40.338Z,2.90
2023-02-12T15:44:29.492Z,2.53
2023-02-12T15:47:03.256Z,2.63
2023-02-12T15:49:36.910Z,2.50
2023-02-12T15:52:10.098Z,2.30
2023-02-12T15:54:39.698Z,1.73
2023-02-12T15:57:20.199Z,3.90
2023-02-12T15:59:52.898Z,2.50
2023-02-12T16:02:26.134Z,2.03
2023-02-12T16:04:54.591Z,2.00
2023-02-12T16:07:25.673Z,2.88
2023-02-12T16:09:54.860Z,3.05
2023-02-12T16:12:30.383Z,2.53
2023-02-12T16:15:00.573Z,2.47
2023-02-12T16:17:31.597Z,2.33
2023-02-12T16:20:02.385Z,2.15
2023-02-12T16:22:34.616Z,3.08
2023-02-12T16:25:03.470Z,2.55
2023-02-12T16:27:34.346Z,2.47
2023-02-12T16:30:05.327Z,2.33
2023-02-12T16:32:39.919Z,3.30
2023-02-12T16:35:25.912Z,3.60
2023-02-12T16:38:02.614Z,2.85
2023-02-12T16:40:34.116Z,2.85
2023-02-12T16:43:24.008Z,2.75
2023-02-12T16:45:52.993Z,2.53
2023-02-12T16:48:25.784Z,2.90
2023-02-12T16:50:56.593Z,2.58
2023-02-12T16:53:47.476Z,3.30
2023-02-12T16:56:18.950Z,2.58
2023-02-12T16:58:49.515Z,2.97
2023-02-12T17:01:21.556Z,2.90
2023-02-12T17:03:53.990Z,2.75
2023-02-12T17:06:26.684Z,2.80
2023-02-12T17:08:56.777Z,3.25
2023-02-12T17:11:26.151Z,2.78
2023-02-12T17:13:55.942Z,3.10
2023-02-12T17:16:30.772Z,3.50
2023-02-12T17:18:59.713Z,3.35
2023-02-12T17:21:30.530Z,2.92
2023-02-12T17:24:00.176Z,3.33
2023-02-12T17:26:28.606Z,3.70
2023-02-12T17:29:05.149Z,3.28
2023-02-12T17:31:33.689Z,3.95
2023-02-12T17:34:02.470Z,3.45
2023-02-12T17:36:30.777Z,2.90
2023-02-12T17:39:00.874Z,2.47
2023-02-12T17:41:29.179Z,2.70
2023-02-12T17:43:58.806Z,3.17
2023-02-12T17:46:29.551Z,3.00
2023-02-12T17:48:58.111Z,3.08
2023-02-12T17:51:26.762Z,2.65
2023-02-12T17:53:55.157Z,2.25
2023-02-12T17:56:25.938Z,2.50
2023-02-12T17:58:54.991Z,2.83
2023-02-12T18:01:24.741Z,3.28
2023-02-12T18:03:55.530Z,3.13
2023-02-12T18:06:25.843Z,2.67
2023-02-12T18:08:54.408Z,3.05
2023-02-12T18:11:24.125Z,2.97
2023-02-12T18:13:55.829Z,3.80
2023-02-12T18:16:25.699Z,3.50
2023-02-12T18:18:54.175Z,3.13
2023-02-12T18:21:22.637Z,3.50
2023-02-12T18:23:51.016Z,3.08
2023-02-12T18:26:20.308Z,4.20
2023-02-12T18:28:53.939Z,4.28
2023-02-12T18:31:22.345Z,5.32
2023-02-12T18:33:51.153Z,4.47
2023-02-12T18:36:21.501Z,3.92
2023-02-12T18:38:51.455Z,3.92
2023-02-12T18:41:22.197Z,4.28
2023-02-12T18:43:52.337Z,3.58
2023-02-12T18:46:23.669Z,3.80
2023-02-12T18:48:52.521Z,3.88
2023-02-12T18:51:23.612Z,3.35
2023-02-12T18:53:56.630Z,4.53
2023-02-12T18:56:25.235Z,4.05
2023-02-12T18:58:58.393Z,3.90
2023-02-12T19:01:27.856Z,3.95
2023-02-12T19:03:57.468Z,3.55
2023-02-12T19:06:26.294Z,4.13
2023-02-12T19:08:56.129Z,3.58
2023-02-12T19:11:24.878Z,3.55
2023-02-12T19:13:53.157Z,4.22
2023-02-12T19:16:25.621Z,3.47
2023-02-12T19:18:55.820Z,3.85
2023-02-12T19:21:26.574Z,3.70
2023-02-12T19:23:55.308Z,4.18
2023-02-12T19:26:24.729Z,3.78
2023-02-12T19:28:53.271Z,3.47
2023-02-12T19:31:24.710Z,4.13
2023-02-12T19:33:57.228Z,3.20
2023-02-12T19:36:27.251Z,3.88
2023-02-12T19:38:56.335Z,4.57
2023-02-12T19:41:26.989Z,4.85
2023-02-12T19:43:58.248Z,5.55
2023-02-12T19:46:33.074Z,5.30
2023-02-12T19:49:03.049Z,4.95
2023-02-12T19:51:32.467Z,4.63
2023-02-12T19:54:01.790Z,5.90
2023-02-12T19:56:30.032Z,5.07
2023-02-12T19:58:58.348Z,3.60
2023-02-12T20:01:29.274Z,4.43
2023-02-12T20:03:58.228Z,3.22
2023-02-12T20:06:32.217Z,3.97
2023-02-12T20:09:00.586Z,3.17
2023-02-12T20:11:31.113Z,3.80
2023-02-12T20:13:59.916Z,3.78
2023-02-12T20:16:37.516Z,3.90
2023-02-12T20:19:10.367Z,3.70
2023-02-12T20:21:39.341Z,3.63
2023-02-12T20:24:08.369Z,3.00
2023-02-12T20:26:37.226Z,2.90
2023-02-12T20:29:05.860Z,2.70
2023-02-12T20:31:37.091Z,3.40
2023-02-12T20:34:07.866Z,3.03
2023-02-12T20:36:38.174Z,3.50
2023-02-12T20:39:08.758Z,3.05
2023-02-12T20:41:37.906Z,2.80
2023-02-12T20:44:07.715Z,2.63
2023-02-12T20:46:39.476Z,3.70
2023-02-12T20:49:08.172Z,2.80
2023-02-12T20:51:36.642Z,2.42
2023-02-12T20:54:05.088Z,2.88
2023-02-12T20:56:37.875Z,2.78
2023-02-12T20:59:07.355Z,2.65
2023-02-12T21:01:38.865Z,2.50
2023-02-12T21:04:09.190Z,3.35
2023-02-12T21:06:40.025Z,2.17
2023-02-12T21:09:09.637Z,3.42
2023-02-12T21:11:38.480Z,2.35
2023-02-12T21:14:21.292Z,2.33
2023-02-12T21:16:55.638Z,2.08
2023-02-12T21:19:24.288Z,4.72
2023-02-12T21:21:52.721Z,3.03
2023-02-12T21:24:22.722Z,3.15
2023-02-12T21:26:52.020Z,2.15
2023-02-12T21:29:21.206Z,2.65
2023-02-12T21:31:51.984Z,2.13
2023-02-12T21:34:22.418Z,2.42
2023-02-12T21:36:52.248Z,2.28
2023-02-12T21:39:26.261Z,3.13
2023-02-12T21:41:56.227Z,3.17
2023-02-12T21:44:25.533Z,2.13
2023-02-12T21:46:56.075Z,2.10
2023-02-12T21:49:27.631Z,2.47
2023-02-12T21:51:58.111Z,1.92
2023-02-12T21:54:27.329Z,3.00
2023-02-12T21:56:56.281Z,2.15
2023-02-12T21:59:24.936Z,2.00
2023-02-12T22:01:56.115Z,2.10
2023-02-12T22:04:24.272Z,2.72
2023-02-12T22:06:54.021Z,2.03
2023-02-12T22:09:23.820Z,1.90
2023-02-12T22:11:53.016Z,2.35
2023-02-12T22:14:22.075Z,2.28
2023-02-12T22:16:50.573Z,2.85
2023-02-12T22:19:20.139Z,2.08
2023-02-12T22:21:51.442Z,2.58
2023-02-12T22:24:20.127Z,2.47
2023-02-12T22:26:48.283Z,2.00
2023-02-12T22:29:17.683Z,2.13
2023-02-12T22:31:48.359Z,2.83
2023-02-12T22:34:19.850Z,2.20
2023-02-12T22:36:48.905Z,1.90
2023-02-12T22:39:17.926Z,1.80
2023-02-12T22:41:46.482Z,2.13
2023-02-12T22:44:15.961Z,2.30
2023-02-12T22:46:44.354Z,2.17
2023-02-12T22:49:12.438Z,2.15
2023-02-12T22:51:42.122Z,2.78
2023-02-12T22:54:13.893Z,2.47
2023-02-12T22:56:42.390Z,1.88
2023-02-12T22:59:11.866Z,2.75
2023-02-12T23:01:40.305Z,2.80
2023-02-12T23:04:08.688Z,1.95
2023-02-12T23:06:36.952Z,2.88
2023-02-12T23:09:06.634Z,2.25
2023-02-12T23:11:35.194Z,5.78
2023-02-12T23:14:03.324Z,3.60
2023-02-12T23:16:31.688Z,2.90
2023-02-12T23:19:01.524Z,2.53
2023-02-12T23:21:31.157Z,2.55
2023-02-12T23:24:00.217Z,2.15
2023-02-12T23:26:30.649Z,2.33
2023-02-12T23:28:59.569Z,2.78
2023-02-12T23:31:27.743Z,2.55
2023-02-12T23:33:55.906Z,2.92
2023-02-12T23:36:23.946Z,3.20
2023-02-12T23:38:52.071Z,2.53
2023-02-12T23:41:20.254Z,2.80
2023-02-12T23:43:49.795Z,3.58
2023-02-12T23:46:18.065Z,3.50
2023-02-12T23:48:46.140Z,3.20
2023-02-12T23:51:14.402Z,3.50
2023-02-12T23:53:42.619Z,3.22
2023-02-12T23:56:10.652Z,2.88
2023-02-12T23:58:38.903Z,2.33
